createdAt,value
2019-03-29T00:00:11.647Z,99.90
2019-03-29T00:02:41.298Z,99.90
2019-03-29T00:05:09.851Z,99.90
2019-03-29T00:07:39.885Z,99.90
2019-03-29T00:10:10.099Z,99.90
2019-03-29T00:12:38.692Z,99.90
2019-03-29T00:15:09.061Z,99.90
2019-03-29T00:17:40.108Z,99.90
2019-03-29T00:20:10.045Z,99.90
2019-03-29T00:22:39.730Z,99.90
2019-03-29T00:25:09.186Z,99.90
2019-03-29T00:27:37.657Z,99.90
2019-03-29T00:30:09.379Z,99.90
2019-03-29T00:32:38.043Z,99.90
2019-03-29T00:35:08.368Z,99.90
2019-03-29T00:37:52.518Z,99.90
2019-03-29T00:40:10.336Z,99.90
2019-03-29T00:42:38.789Z,99.90
2019-03-29T00:45:26.679Z,99.90
2019-03-29T00:47:55.977Z,99.90
2019-03-29T00:50:24.795Z,99.90
2019-03-29T00:52:53.299Z,99.90
2019-03-29T00:55:21.765Z,99.90
2019-03-29T00:57:50.227Z,99.90
2019-03-29T01:00:20.327Z,99.90
2019-03-29T01:02:48.903Z,99.90
2019-03-29T01:05:17.383Z,99.90
2019-03-29T01:07:45.939Z,99.90
2019-03-29T01:10:15.561Z,99.90
2019-03-29T01:12:44.870Z,99.90
2019-03-29T01:15:13.643Z,99.90
2019-03-29T01:17:42.107Z,99.90
2019-03-29T01:20:13.387Z,99.90
2019-03-29T01:22:43.051Z,99.90
2019-03-29T01:25:11.659Z,99.90
2019-03-29T01:27:40.196Z,99.90
2019-03-29T01:30:12.121Z,99.90
2019-03-29T01:32:42.199Z,99.90
2019-03-29T01:35:12.478Z,99.90
2019-03-29T01:37:43.794Z,99.90
2019-03-29T01:40:12.786Z,99.90
2019-03-29T01:42:42.803Z,99.90
2019-03-29T01:45:11.437Z,99.90
2019-03-29T01:47:43.273Z,99.90
2019-03-29T01:50:13.376Z,99.90
2019-03-29T01:52:43.433Z,99.90
2019-03-29T01:55:14.333Z,99.90
2019-03-29T01:57:45.095Z,99.90
2019-03-29T02:00:16.654Z,99.90
2019-03-29T02:02:49.403Z,99.90
2019-03-29T02:05:17.879Z,99.90
2019-03-29T02:07:54.011Z,99.90
2019-03-29T02:10:25.458Z,99.90
2019-03-29T02:12:54.917Z,99.90
2019-03-29T02:15:24.219Z,99.90
2019-03-29T02:17:52.748Z,99.90
2019-03-29T02:20:24.153Z,99.90
2019-03-29T02:22:52.731Z,99.90
2019-03-29T02:25:22.317Z,99.90
2019-03-29T02:27:50.789Z,99.90
2019-03-29T02:30:22.056Z,99.90
2019-03-29T02:32:57.955Z,99.90
2019-03-29T02:35:29.796Z,99.90
2019-03-29T02:37:58.376Z,99.90
2019-03-29T02:40:33.347Z,99.90
2019-03-29T02:43:21.193Z,99.90
2019-03-29T02:45:49.668Z,99.90
2019-03-29T02:48:18.133Z,99.90
2019-03-29T02:50:48.102Z,99.90
2019-03-29T02:53:18.297Z,99.90
2019-03-29T02:55:46.786Z,99.90
2019-03-29T02:58:16.856Z,99.90
2019-03-29T03:00:45.341Z,99.90
2019-03-29T03:03:14.001Z,99.90
2019-03-29T03:05:44.052Z,99.90
2019-03-29T03:08:12.823Z,99.90
2019-03-29T03:10:45.368Z,99.90
2019-03-29T03:13:14.097Z,99.90
2019-03-29T03:15:42.577Z,99.90
2019-03-29T03:18:12.034Z,99.90
2019-03-29T03:20:41.621Z,99.90
2019-03-29T03:23:10.148Z,99.90
2019-03-29T03:25:41.715Z,99.90
2019-03-29T03:28:10.428Z,99.90
2019-03-29T03:30:42.065Z,99.90
2019-03-29T03:33:10.789Z,99.90
2019-03-29T03:35:39.268Z,99.90
2019-03-29T03:38:07.803Z,99.90
2019-03-29T03:40:36.287Z,99.90
2019-03-29T03:43:04.855Z,99.90
2019-03-29T03:45:34.243Z,99.90
2019-03-29T03:48:02.687Z,99.90
2019-03-29T03:50:42.220Z,99.90
2019-03-29T03:53:11.164Z,99.90
2019-03-29T03:55:40.564Z,99.90
2019-03-29T03:58:11.323Z,99.90
2019-03-29T04:00:58.250Z,99.90
2019-03-29T04:03:30.963Z,99.90
2019-03-29T04:05:59.572Z,99.90
2019-03-29T04:08:32.959Z,99.90
2019-03-29T04:11:01.524Z,99.90
2019-03-29T04:13:30.089Z,99.90
2019-03-29T04:15:58.564Z,99.90
2019-03-29T04:18:27.060Z,99.90
2019-03-29T04:20:57.758Z,99.90
2019-03-29T04:23:26.452Z,99.90
2019-03-29T04:25:55.547Z,99.90
2019-03-29T04:28:25.786Z,99.90
2019-03-29T04:30:54.429Z,99.90
2019-03-29T04:33:24.289Z,99.90
2019-03-29T04:35:52.757Z,99.90
2019-03-29T04:38:23.944Z,99.90
2019-03-29T04:40:52.426Z,99.90
2019-03-29T04:43:21.978Z,99.90
2019-03-29T04:45:50.436Z,99.90
2019-03-29T04:48:20.281Z,99.90
2019-03-29T04:50:48.806Z,99.90
2019-03-29T04:53:19.919Z,99.90
2019-03-29T04:55:48.406Z,99.90
2019-03-29T04:58:19.363Z,99.90
2019-03-29T05:00:47.893Z,99.90
2019-03-29T05:03:21.920Z,99.90
2019-03-29T05:05:53.977Z,99.90
2019-03-29T05:08:22.531Z,99.90
2019-03-29T05:10:51.053Z,99.90
2019-03-29T05:13:19.674Z,99.90
2019-03-29T05:15:48.209Z,99.90
2019-03-29T05:18:16.713Z,99.90
2019-03-29T05:20:49.463Z,99.90
2019-03-29T05:23:18.083Z,99.90
2019-03-29T05:25:46.717Z,99.90
2019-03-29T05:28:15.184Z,99.90
2019-03-29T05:30:43.685Z,99.90
2019-03-29T05:33:12.170Z,99.90
2019-03-29T05:35:40.816Z,99.90
2019-03-29T05:38:10.581Z,99.90
2019-03-29T05:40:43.389Z,99.90
2019-03-29T05:43:11.896Z,99.90
2019-03-29T05:45:42.557Z,99.90
2019-03-29T05:48:11.057Z,99.90
2019-03-29T05:50:40.546Z,99.90
2019-03-29T05:53:09.146Z,99.90
2019-03-29T05:55:37.771Z,99.90
2019-03-29T05:58:08.673Z,99.90
2019-03-29T06:00:39.240Z,99.90
2019-03-29T06:03:09.997Z,99.90
2019-03-29T06:05:40.621Z,99.90
2019-03-29T06:08:10.320Z,99.90
2019-03-29T06:10:49.052Z,99.90
2019-03-29T06:13:08.986Z,99.90
2019-03-29T06:15:37.495Z,99.90
2019-03-29T06:18:05.969Z,99.90
2019-03-29T06:20:34.427Z,99.90
2019-03-29T06:23:03.676Z,99.90
2019-03-29T06:25:32.615Z,99.90
2019-03-29T06:28:01.077Z,99.90
2019-03-29T06:30:30.091Z,99.90
2019-03-29T06:32:59.257Z,99.90
2019-03-29T06:35:32.971Z,99.90
2019-03-29T06:38:05.950Z,99.90
2019-03-29T06:40:36.088Z,99.90
2019-03-29T06:43:04.772Z,99.90
2019-03-29T06:45:47.166Z,99.90
2019-03-29T06:48:06.202Z,99.90
2019-03-29T06:50:34.682Z,99.90
2019-03-29T06:53:05.906Z,99.90
2019-03-29T06:55:35.392Z,99.90
2019-03-29T06:58:03.988Z,99.90
2019-03-29T07:00:35.364Z,99.90
2019-03-29T07:03:06.906Z,99.90
2019-03-29T07:05:36.505Z,99.90
2019-03-29T07:08:04.978Z,99.90
2019-03-29T07:10:34.831Z,99.90
2019-03-29T07:13:04.348Z,99.90
2019-03-29T07:15:32.814Z,99.90
2019-03-29T07:18:02.881Z,99.90
2019-03-29T07:20:32.730Z,99.90
2019-03-29T07:23:01.360Z,99.90
2019-03-29T07:25:30.018Z,99.90
2019-03-29T07:27:58.682Z,99.90
2019-03-29T07:30:27.148Z,99.90
2019-03-29T07:32:55.830Z,99.90
2019-03-29T07:35:29.042Z,99.90
2019-03-29T07:37:57.510Z,99.90
2019-03-29T07:40:25.992Z,99.90
2019-03-29T07:42:54.525Z,99.90
2019-03-29T07:45:25.347Z,99.90
2019-03-29T07:47:53.916Z,99.90
2019-03-29T07:50:22.448Z,99.90
2019-03-29T07:52:51.121Z,99.90
2019-03-29T07:55:21.218Z,99.90
2019-03-29T07:57:49.757Z,99.90
2019-03-29T08:00:22.088Z,99.90
2019-03-29T08:02:50.959Z,99.90
2019-03-29T08:05:19.431Z,99.90
2019-03-29T08:07:47.895Z,99.90
2019-03-29T08:10:25.817Z,99.90
2019-03-29T08:12:49.423Z,99.90
2019-03-29T08:15:17.153Z,98.80
2019-03-29T08:17:45.653Z,97.80
2019-03-29T08:20:38.956Z,96.70
2019-03-29T08:22:44.557Z,96.10
2019-03-29T08:25:15.969Z,94.00
2019-03-29T08:27:50.220Z,94.00
2019-03-29T08:30:18.779Z,95.00
2019-03-29T08:32:48.553Z,94.10
2019-03-29T08:35:17.052Z,94.20
2019-03-29T08:37:48.117Z,92.60
2019-03-29T08:40:19.083Z,91.40
2019-03-29T08:42:47.570Z,90.10
2019-03-29T08:45:19.098Z,90.00
2019-03-29T08:47:47.605Z,89.10
2019-03-29T08:50:16.147Z,90.20
2019-03-29T08:52:47.146Z,89.00
2019-03-29T08:55:18.773Z,87.00
2019-03-29T08:57:47.557Z,85.70
2019-03-29T09:00:30.247Z,84.30
2019-03-29T09:03:00.378Z,81.70
2019-03-29T09:05:28.999Z,82.30
2019-03-29T09:07:59.105Z,82.00
2019-03-29T09:10:28.581Z,80.70
2019-03-29T09:13:04.461Z,81.70
2019-03-29T09:15:33.283Z,78.90
2019-03-29T09:18:01.862Z,77.60
2019-03-29T09:20:34.587Z,79.10
2019-03-29T09:23:04.282Z,76.20
2019-03-29T09:25:35.499Z,76.20
2019-03-29T09:28:04.033Z,76.30
2019-03-29T09:30:33.512Z,76.40
2019-03-29T09:33:03.657Z,76.50
2019-03-29T09:35:32.189Z,76.70
2019-03-29T09:38:00.652Z,77.00
2019-03-29T09:40:29.239Z,75.20
2019-03-29T09:45:28.155Z,71.30
2019-03-29T09:47:57.185Z,70.00
2019-03-29T09:50:26.891Z,68.20
2019-03-29T09:52:56.719Z,68.80
2019-03-29T09:55:27.376Z,70.30
2019-03-29T09:57:58.043Z,68.80
2019-03-29T10:00:27.660Z,65.80
2019-03-29T10:02:57.997Z,69.00
2019-03-29T10:05:26.518Z,65.00
2019-03-29T10:07:55.077Z,66.00
2019-03-29T10:10:23.548Z,63.50
2019-03-29T10:12:54.801Z,61.30
2019-03-29T10:15:23.268Z,64.20
2019-03-29T10:17:51.732Z,62.90
2019-03-29T10:20:24.044Z,60.80
2019-03-29T10:22:53.833Z,60.40
2019-03-29T10:25:26.232Z,59.70
2019-03-29T10:27:56.257Z,60.50
2019-03-29T10:30:39.558Z,59.80
2019-03-29T10:33:12.316Z,59.70
2019-03-29T10:35:51.709Z,60.10
2019-03-29T10:38:12.964Z,58.80
2019-03-29T10:40:41.544Z,60.20
2019-03-29T10:43:13.361Z,57.40
2019-03-29T10:45:41.886Z,57.40
2019-03-29T10:48:10.506Z,55.30
2019-03-29T10:50:39.101Z,57.20
2019-03-29T10:53:08.652Z,54.70
2019-03-29T10:55:37.174Z,54.80
2019-03-29T10:58:09.673Z,56.30
2019-03-29T11:00:40.849Z,53.10
2019-03-29T11:03:09.382Z,53.10
2019-03-29T11:05:38.296Z,52.90
2019-03-29T11:08:11.698Z,53.00
2019-03-29T11:10:40.671Z,52.80
2019-03-29T11:13:14.342Z,53.20
2019-03-29T11:15:40.490Z,53.50
2019-03-29T11:18:09.169Z,50.80
2019-03-29T11:20:37.737Z,53.40
2019-03-29T11:23:06.453Z,52.00
2019-03-29T11:25:36.185Z,51.90
2019-03-29T11:28:07.025Z,51.40
2019-03-29T11:30:42.550Z,51.30
2019-03-29T11:33:09.953Z,53.40
2019-03-29T11:35:38.412Z,52.10
2019-03-29T11:38:07.135Z,50.50
2019-03-29T11:40:35.875Z,51.80
2019-03-29T11:43:25.727Z,53.70
2019-03-29T11:45:42.605Z,52.40
2019-03-29T11:48:11.069Z,51.00
2019-03-29T11:50:39.608Z,49.80
2019-03-29T11:53:08.132Z,48.30
2019-03-29T11:55:38.138Z,48.30
2019-03-29T11:58:08.194Z,52.50
2019-03-29T12:00:38.073Z,52.90
2019-03-29T12:03:09.091Z,53.30
2019-03-29T12:05:36.942Z,53.30
2019-03-29T12:08:06.287Z,53.70
2019-03-29T12:10:37.987Z,52.80
2019-03-29T12:13:07.843Z,51.40
2019-03-29T12:15:38.095Z,50.10
2019-03-29T12:18:06.710Z,51.60
2019-03-29T12:20:39.406Z,49.80
2019-03-29T12:23:09.611Z,49.60
2019-03-29T12:25:39.675Z,50.30
2019-03-29T12:28:10.497Z,50.30
2019-03-29T12:30:39.526Z,48.80
2019-03-29T12:33:09.549Z,48.30
2019-03-29T12:35:38.015Z,50.40
2019-03-29T12:38:08.062Z,49.60
2019-03-29T12:40:36.597Z,49.10
2019-03-29T12:43:07.714Z,49.40
2019-03-29T12:45:36.506Z,53.20
2019-03-29T12:48:05.113Z,53.20
2019-03-29T12:50:33.582Z,50.50
2019-03-29T12:53:02.354Z,49.20
2019-03-29T12:55:30.833Z,50.40
2019-03-29T12:58:02.404Z,50.40
2019-03-29T13:00:35.325Z,50.80
2019-03-29T13:03:04.203Z,53.50
2019-03-29T13:05:34.222Z,50.80
2019-03-29T13:08:02.729Z,49.40
2019-03-29T13:10:31.335Z,48.60
2019-03-29T13:13:00.681Z,48.80
2019-03-29T13:15:33.724Z,47.70
2019-03-29T13:18:02.324Z,47.70
2019-03-29T13:20:30.906Z,49.80
2019-03-29T13:23:00.755Z,48.80
2019-03-29T13:25:30.828Z,48.00
2019-03-29T13:27:59.746Z,47.50
2019-03-29T13:30:28.430Z,48.30
2019-03-29T13:32:56.900Z,47.50
2019-03-29T13:35:25.432Z,46.00
2019-03-29T13:37:54.046Z,46.90
2019-03-29T13:40:22.645Z,47.20
2019-03-29T13:42:52.190Z,47.40
2019-03-29T13:45:27.857Z,47.60
2019-03-29T13:47:55.479Z,47.90
2019-03-29T13:50:23.990Z,48.70
2019-03-29T13:52:52.542Z,48.50
2019-03-29T13:55:23.369Z,46.70
2019-03-29T13:57:57.660Z,47.20
2019-03-29T14:00:26.366Z,45.60
2019-03-29T14:02:57.710Z,46.70
2019-03-29T14:05:28.976Z,47.00
2019-03-29T14:07:57.472Z,47.30
2019-03-29T14:10:28.836Z,46.60
2019-03-29T14:12:57.618Z,46.60
2019-03-29T14:15:26.110Z,46.50
2019-03-29T14:17:54.718Z,45.90
2019-03-29T14:20:31.145Z,46.70
2019-03-29T14:23:00.083Z,46.00
2019-03-29T14:25:28.533Z,44.70
2019-03-29T14:28:00.148Z,44.40
2019-03-29T14:30:28.637Z,45.40
2019-03-29T14:32:57.094Z,46.20
2019-03-29T14:35:25.592Z,45.90
2019-03-29T14:37:54.049Z,47.90
2019-03-29T14:40:22.513Z,46.00
2019-03-29T14:42:51.590Z,46.70
2019-03-29T14:45:20.062Z,46.80
2019-03-29T14:47:48.585Z,46.50
2019-03-29T14:50:20.727Z,45.60
2019-03-29T14:52:49.365Z,44.70
2019-03-29T14:55:17.901Z,46.00
2019-03-29T14:57:46.385Z,46.60
2019-03-29T15:00:20.427Z,47.10
2019-03-29T15:02:52.326Z,47.40
2019-03-29T15:05:20.954Z,47.40
2019-03-29T15:07:51.123Z,47.30
2019-03-29T15:10:28.272Z,47.90
2019-03-29T15:13:00.733Z,48.40
2019-03-29T15:15:29.232Z,47.00
2019-03-29T15:18:00.578Z,47.10
2019-03-29T15:20:29.081Z,47.60
2019-03-29T15:22:57.566Z,47.40
2019-03-29T15:25:26.113Z,47.90
2019-03-29T15:27:54.618Z,47.60
2019-03-29T15:30:25.960Z,48.50
2019-03-29T15:32:55.823Z,49.30
2019-03-29T15:35:28.362Z,50.30
2019-03-29T15:37:56.907Z,48.20
2019-03-29T15:40:27.484Z,48.80
2019-03-29T15:42:56.031Z,49.60
2019-03-29T15:45:24.569Z,48.50
2019-03-29T15:47:53.175Z,48.40
2019-03-29T15:50:22.733Z,47.40
2019-03-29T15:52:51.199Z,47.20
2019-03-29T15:55:19.997Z,47.60
2019-03-29T15:57:48.561Z,47.10
2019-03-29T16:00:19.254Z,46.20
2019-03-29T16:02:47.825Z,45.90
2019-03-29T16:05:17.363Z,45.80
2019-03-29T16:07:45.832Z,46.10
2019-03-29T16:10:14.395Z,46.20
2019-03-29T16:12:44.501Z,45.90
2019-03-29T16:15:32.949Z,45.80
2019-03-29T16:17:45.499Z,45.50
2019-03-29T16:20:14.055Z,46.60
2019-03-29T16:22:42.573Z,45.90
2019-03-29T16:25:13.931Z,45.90
2019-03-29T16:27:42.407Z,45.40
2019-03-29T16:30:12.773Z,44.40
2019-03-29T16:32:41.332Z,44.40
2019-03-29T16:35:10.861Z,44.30
2019-03-29T16:37:39.438Z,45.20
2019-03-29T16:40:08.359Z,46.20
2019-03-29T16:42:36.923Z,47.90
2019-03-29T16:45:07.680Z,51.20
2019-03-29T16:47:38.086Z,51.00
2019-03-29T16:50:07.222Z,51.70
2019-03-29T16:52:37.371Z,50.40
2019-03-29T16:55:13.789Z,50.10
2019-03-29T16:57:39.425Z,49.90
2019-03-29T17:00:12.981Z,50.90
2019-03-29T17:02:41.472Z,52.00
2019-03-29T17:05:11.556Z,52.20
2019-03-29T17:07:40.709Z,53.30
2019-03-29T17:10:09.434Z,54.00
2019-03-29T17:12:39.108Z,54.40
2019-03-29T17:15:08.534Z,56.70
2019-03-29T17:17:37.194Z,55.80
2019-03-29T17:20:07.694Z,56.00
2019-03-29T17:22:36.933Z,55.90
2019-03-29T17:25:07.417Z,56.00
2019-03-29T17:27:35.948Z,56.70
2019-03-29T17:30:07.414Z,57.60
2019-03-29T17:32:36.513Z,58.10
2019-03-29T17:35:06.793Z,58.20
2019-03-29T17:37:35.309Z,59.10
2019-03-29T17:40:06.087Z,58.90
2019-03-29T17:42:35.878Z,59.00
2019-03-29T17:45:07.384Z,59.50
2019-03-29T17:47:38.295Z,60.40
2019-03-29T17:50:07.428Z,61.10
2019-03-29T17:52:37.178Z,61.70
2019-03-29T17:55:06.985Z,62.60
2019-03-29T17:57:35.455Z,64.00
2019-03-29T18:00:08.473Z,65.20
2019-03-29T18:02:37.047Z,65.40
2019-03-29T18:05:08.648Z,65.70
2019-03-29T18:07:37.163Z,66.30
2019-03-29T18:10:10.775Z,66.60
2019-03-29T18:12:39.371Z,67.10
2019-03-29T18:15:08.780Z,67.60
2019-03-29T18:17:37.244Z,68.60
2019-03-29T18:20:09.136Z,69.40
2019-03-29T18:22:38.912Z,69.80
2019-03-29T18:25:08.034Z,70.70
2019-03-29T18:27:37.805Z,71.50
2019-03-29T18:30:13.222Z,72.50
2019-03-29T18:32:41.528Z,74.80
2019-03-29T18:35:10.367Z,74.70
2019-03-29T18:37:39.142Z,75.80
2019-03-29T18:40:11.879Z,74.60
2019-03-29T18:42:40.491Z,74.50
2019-03-29T18:45:09.638Z,74.50
2019-03-29T18:47:39.380Z,74.40
2019-03-29T18:50:11.105Z,74.30
2019-03-29T18:52:42.586Z,75.90
2019-03-29T18:55:12.911Z,76.70
2019-03-29T18:57:41.596Z,77.30
2019-03-29T19:00:10.659Z,78.40
2019-03-29T19:02:39.344Z,79.30
2019-03-29T19:05:09.702Z,79.70
2019-03-29T19:07:39.949Z,80.70
2019-03-29T19:10:10.779Z,81.00
2019-03-29T19:12:40.618Z,81.70
2019-03-29T19:15:09.171Z,82.30
2019-03-29T19:17:37.647Z,81.70
2019-03-29T19:20:10.238Z,82.30
2019-03-29T19:22:37.305Z,82.90
2019-03-29T19:25:09.190Z,83.10
2019-03-29T19:27:40.729Z,83.80
2019-03-29T19:30:11.068Z,85.00
2019-03-29T19:32:39.842Z,86.20
2019-03-29T19:35:08.727Z,86.60
2019-03-29T19:37:37.249Z,87.00
2019-03-29T19:40:09.078Z,87.70
2019-03-29T19:42:37.538Z,89.00
2019-03-29T19:45:09.011Z,89.90
2019-03-29T19:47:37.503Z,90.30
2019-03-29T19:50:07.763Z,90.70
2019-03-29T19:52:37.698Z,91.10
2019-03-29T19:55:07.977Z,91.70
2019-03-29T19:57:36.587Z,91.80
2019-03-29T20:00:09.586Z,92.30
2019-03-29T20:02:38.127Z,92.80
2019-03-29T20:05:09.755Z,93.50
2019-03-29T20:07:40.613Z,93.50
2019-03-29T20:10:09.381Z,93.50
2019-03-29T20:12:39.087Z,93.50
2019-03-29T20:15:07.967Z,93.40
2019-03-29T20:17:40.329Z,93.40
2019-03-29T20:20:10.405Z,93.40
2019-03-29T20:22:38.993Z,93.40
2019-03-29T20:25:08.983Z,93.30
2019-03-29T20:27:38.849Z,93.30
2019-03-29T20:30:10.779Z,93.30
2019-03-29T20:32:42.490Z,94.30
2019-03-29T20:35:11.021Z,94.10
2019-03-29T20:37:39.534Z,94.30
2019-03-29T20:40:11.088Z,94.30
2019-03-29T20:42:42.056Z,94.90
2019-03-29T20:45:12.774Z,95.40
2019-03-29T20:47:42.668Z,95.90
2019-03-29T20:50:11.760Z,96.40
2019-03-29T20:52:40.352Z,97.10
2019-03-29T20:55:09.019Z,97.80
2019-03-29T20:57:37.550Z,98.00
2019-03-29T21:00:13.716Z,98.20
2019-03-29T21:02:43.436Z,98.90
2019-03-29T21:05:12.144Z,98.90
2019-03-29T21:07:41.122Z,99.20
2019-03-29T21:10:09.974Z,98.90
2019-03-29T21:12:38.435Z,99.30
2019-03-29T21:15:08.760Z,99.60
2019-03-29T21:17:39.250Z,99.70
2019-03-29T21:20:09.428Z,99.70
2019-03-29T21:22:38.622Z,99.70
2019-03-29T21:25:12.424Z,99.90
2019-03-29T21:27:40.900Z,99.90
2019-03-29T21:30:11.304Z,99.90
2019-03-29T21:32:40.758Z,99.90
2019-03-29T21:35:09.558Z,99.90
2019-03-29T21:37:40.709Z,99.90
2019-03-29T21:40:09.673Z,99.90
2019-03-29T21:42:39.346Z,99.90
2019-03-29T21:45:09.922Z,99.90
2019-03-29T21:47:38.411Z,99.90
2019-03-29T21:50:09.035Z,99.90
2019-03-29T21:52:37.781Z,99.90
2019-03-29T21:55:07.835Z,99.90
2019-03-29T21:57:36.417Z,99.90
2019-03-29T22:00:08.337Z,99.90
2019-03-29T22:02:38.026Z,99.90
2019-03-29T22:05:10.570Z,99.90
2019-03-29T22:07:39.325Z,99.90
2019-03-29T22:10:13.975Z,99.90
2019-03-29T22:12:43.535Z,99.90
2019-03-29T22:15:12.245Z,99.90
2019-03-29T22:17:41.282Z,99.90
2019-03-29T22:20:10.785Z,99.90
2019-03-29T22:22:40.366Z,99.90
2019-03-29T22:25:09.421Z,99.90
2019-03-29T22:27:38.219Z,99.90
2019-03-29T22:30:09.606Z,99.90
2019-03-29T22:32:41.983Z,99.90
2019-03-29T22:35:11.229Z,99.90
2019-03-29T22:37:39.701Z,99.90
2019-03-29T22:40:14.393Z,99.90
2019-03-29T22:42:47.693Z,99.90
2019-03-29T22:45:18.314Z,99.90
2019-03-29T22:47:47.190Z,99.90
2019-03-29T22:50:16.041Z,99.90
2019-03-29T22:52:50.167Z,99.90
2019-03-29T22:55:20.309Z,99.90
2019-03-29T22:57:54.403Z,99.90
2019-03-29T23:00:45.601Z,99.90
2019-03-29T23:03:16.761Z,99.90
2019-03-29T23:05:47.181Z,99.90
2019-03-29T23:08:16.336Z,99.90
2019-03-29T23:10:50.784Z,99.90
2019-03-29T23:13:22.249Z,99.90
2019-03-29T23:15:50.839Z,99.90
2019-03-29T23:18:22.829Z,99.90
2019-03-29T23:20:52.825Z,99.90
2019-03-29T23:23:21.408Z,99.90
2019-03-29T23:25:49.875Z,99.90
2019-03-29T23:28:19.458Z,99.90
2019-03-29T23:30:47.975Z,99.90
2019-03-29T23:33:22.820Z,99.90
2019-03-29T23:35:55.631Z,99.90
2019-03-29T23:38:24.282Z,99.90
2019-03-29T23:40:56.256Z,99.90
2019-03-29T23:43:26.330Z,99.90
2019-03-29T23:45:54.866Z,99.90
2019-03-29T23:48:27.934Z,99.90
2019-03-29T23:50:59.312Z,99.90
2019-03-29T23:53:27.842Z,99.90
2019-03-29T23:55:59.358Z,99.90
2019-03-29T23:58:29.479Z,99.90
